Time;durP1;ratioP1;P1;durP2;ratioP2;P2;SDS_P1;SDS_P2;PMS_P1;PMS_P2;Temp;Humidity;BMP_temperature;BMP_pressure;BME280_temperature;BME280_humidity;BME280_pressure;Samples;Min_cycle;Max_cycle;Signal;HPM_P1;HPM_P2
2022/11/07 00:00:56;;;;;;;9.02;3.45;;;;;;;10.50;93.37;100686.19;5113377;28;20095;-64
2022/11/07 00:03:21;;;;;;;10.77;3.20;;;;;;;10.50;93.42;100699.38;5113595;28;20036;-64
2022/11/07 00:05:46;;;;;;;7.95;3.00;;;;;;;10.52;93.32;100696.75;5113336;28;20465;-64
2022/11/07 00:08:12;;;;;;;6.65;3.03;;;;;;;10.59;93.34;100690.66;5113292;28;20461;-64
2022/11/07 00:10:37;;;;;;;8.65;3.38;;;;;;;10.61;93.41;100706.50;5113252;28;20028;-64
2022/11/07 00:13:03;;;;;;;9.63;3.22;;;;;;;10.63;92.85;100688.94;5113475;28;20028;-64
2022/11/07 00:15:28;;;;;;;9.98;3.47;;;;;;;10.62;93.07;100695.06;5113222;28;20027;-64
2022/11/07 00:17:53;;;;;;;10.30;3.00;;;;;;;10.61;92.31;100696.81;5113130;28;20027;-64
2022/11/07 00:20:19;;;;;;;7.75;3.20;;;;;;;10.57;92.78;100708.22;5113723;28;20063;-64
2022/11/07 00:22:44;;;;;;;11.13;3.70;;;;;;;10.55;92.84;100696.78;5117252;28;20028;-64
2022/11/07 00:25:10;;;;;;;10.40;3.42;;;;;;;10.51;93.03;100700.28;5117075;28;20431;-64
2022/11/07 00:27:35;;;;;;;7.07;3.10;;;;;;;10.48;93.45;100703.75;5098684;28;20111;-64
2022/11/07 00:30:00;;;;;;;6.85;3.10;;;;;;;10.46;93.20;100707.28;5117007;28;20495;-64
2022/11/07 00:32:26;;;;;;;7.38;3.58;;;;;;;10.41;93.46;100709.88;5116927;28;20024;-64
2022/11/07 00:34:51;;;;;;;10.15;3.80;;;;;;;10.39;93.85;100700.16;5116558;28;20124;-64
2022/11/07 00:37:17;;;;;;;5.82;3.08;;;;;;;10.35;93.69;100703.63;5117059;28;20040;-64
2022/11/07 00:39:42;;;;;;;7.80;3.17;;;;;;;10.33;94.39;100705.41;5116749;28;20551;-63
2022/11/07 00:42:07;;;;;;;12.77;3.40;;;;;;;10.33;93.89;100710.69;5116952;28;20077;-63
2022/11/07 00:44:33;;;;;;;6.15;2.80;;;;;;;10.30;94.50;100706.25;5116666;28;20039;-64
2022/11/07 00:46:58;;;;;;;11.07;3.30;;;;;;;10.31;94.24;100712.41;5116620;28;20115;-64
2022/11/07 00:49:23;;;;;;;9.73;3.40;;;;;;;10.30;94.78;100713.28;5116282;28;20380;-63
2022/11/07 00:51:49;;;;;;;9.90;3.60;;;;;;;10.30;94.61;100710.63;5116734;28;20076;-64
2022/11/07 00:54:14;;;;;;;10.65;3.30;;;;;;;10.30;94.51;100724.72;5116339;28;20484;-63
2022/11/07 00:56:39;;;;;;;11.05;3.20;;;;;;;10.27;94.88;100722.94;5116459;28;20107;-63
2022/11/07 00:59:05;;;;;;;6.25;3.22;;;;;;;10.26;95.03;100717.63;5098207;28;20074;-64
2022/11/07 01:01:32;;;;;;;9.02;3.38;;;;;;;10.26;95.01;100718.53;5116586;28;20031;-63
2022/11/07 01:06:44;;;;;;;10.55;3.58;;;;;;;10.26;95.14;100722.91;5116558;28;20147;-64
2022/11/07 01:09:19;;;;;;;8.38;3.38;;;;;;;10.25;94.90;100719.41;5116152;28;20114;-64
2022/11/07 01:11:45;;;;;;;12.63;3.53;;;;;;;10.26;95.42;100718.53;5116160;28;20063;-64
2022/11/07 01:14:13;;;;;;;8.23;3.22;;;;;;;10.33;95.17;100719.47;5097643;28;20438;-64
2022/11/07 01:16:40;;;;;;;7.10;3.00;;;;;;;10.35;95.02;100730.06;5116242;28;20072;-64
2022/11/07 01:19:06;;;;;;;8.50;3.38;;;;;;;10.35;94.81;100741.50;5115734;28;20028;-64
2022/11/07 01:21:32;;;;;;;4.93;3.13;;;;;;;10.36;94.86;100737.09;5116038;28;20032;-63
2022/11/07 01:23:59;;;;;;;8.70;3.17;;;;;;;10.34;95.06;100738.84;5116178;28;20072;-63
2022/11/07 01:26:24;;;;;;;9.88;3.22;;;;;;;10.33;95.00;100737.09;5115838;28;20023;-64
2022/11/07 01:28:49;;;;;;;8.95;3.40;;;;;;;10.31;94.96;100750.25;5116034;28;20066;-64
2022/11/07 01:31:16;;;;;;;9.73;3.30;;;;;;;10.35;94.90;100757.34;5115636;28;20362;-64
2022/11/07 01:33:42;;;;;;;10.18;3.00;;;;;;;10.33;95.07;100752.94;5115643;28;20019;-64
2022/11/07 01:36:10;;;;;;;9.32;3.25;;;;;;;10.36;94.82;100739.72;5115426;28;20054;-64
2022/11/07 01:38:38;;;;;;;9.23;3.40;;;;;;;10.31;95.30;100744.09;5097288;28;20020;-64
2022/11/07 01:41:20;;;;;;;10.85;3.25;;;;;;;10.31;95.44;100755.53;5115775;28;20110;-64
2022/11/07 01:43:50;;;;;;;10.87;3.43;;;;;;;10.33;95.94;100748.53;5115559;28;20143;-64
2022/11/07 01:46:16;;;;;;;11.98;3.35;;;;;;;10.34;95.66;100752.06;5115676;28;20026;-64
2022/11/07 01:48:57;;;;;;;8.48;3.15;;;;;;;10.33;95.67;100747.66;5115191;28;20023;-64
2022/11/07 01:51:24;;;;;;;11.93;3.60;;;;;;;10.38;96.01;100751.22;5115405;28;20024;-64
2022/11/07 01:53:51;;;;;;;10.02;3.50;;;;;;;10.41;95.83;100759.19;5115228;28;20024;-64
2022/11/07 01:56:21;;;;;;;11.38;3.50;;;;;;;10.40;95.39;100745.06;5115251;28;20420;-64
2022/11/07 01:58:46;;;;;;;10.70;3.70;;;;;;;10.41;95.61;100748.63;5115162;28;20114;-64
2022/11/07 02:01:12;;;;;;;11.77;3.08;;;;;;;10.42;95.58;100742.47;5096946;28;20127;-63
2022/11/07 02:03:38;;;;;;;10.82;3.45;;;;;;;10.43;95.27;100749.50;5115075;28;20480;-64
2022/11/07 02:06:12;;;;;;;8.77;3.40;;;;;;;10.43;95.62;100757.44;5115125;28;20077;-63
2022/11/07 02:08:39;;;;;;;6.65;3.20;;;;;;;10.43;96.05;100754.78;5096818;28;20481;-64
2022/11/07 02:11:05;;;;;;;7.35;3.08;;;;;;;10.46;95.85;100762.75;5115269;28;20167;-66
2022/11/07 02:13:31;;;;;;;11.40;3.60;;;;;;;10.47;95.93;100760.09;5115020;28;20028;-63
2022/11/07 02:16:02;;;;;;;11.35;3.50;;;;;;;10.50;95.99;100764.56;5114896;28;20027;-63
2022/11/07 02:18:29;;;;;;;8.57;3.25;;;;;;;10.49;95.46;100758.38;5114607;28;20055;-64
2022/11/07 02:20:58;;;;;;;9.68;3.38;;;;;;;10.48;95.86;100755.72;5114756;28;20027;-64
2022/11/07 02:23:40;;;;;;;8.93;3.80;;;;;;;10.48;96.09;100753.94;5114915;28;20028;-64
2022/11/07 02:26:06;;;;;;;10.38;3.47;;;;;;;10.51;96.08;100756.63;5114695;28;20027;-64
2022/11/07 02:28:33;;;;;;;14.63;3.80;;;;;;;10.52;95.98;100762.78;5114674;28;20015;-64
2022/11/07 02:30:59;;;;;;;10.20;3.50;;;;;;;10.49;96.38;100753.09;5096290;28;20488;-64
2022/11/07 02:33:24;;;;;;;11.48;3.65;;;;;;;10.52;96.56;100765.44;5114469;28;20028;-64
2022/11/07 02:35:51;;;;;;;9.30;3.40;;;;;;;10.51;96.05;100766.31;5114223;28;20174;-64
2022/11/07 02:38:22;;;;;;;11.10;3.53;;;;;;;10.50;96.38;100765.44;5096105;28;20016;-63
2022/11/07 02:41:13;;;;;;;8.23;3.15;;;;;;;10.51;96.25;100767.19;5114397;28;20027;-64
2022/11/07 02:43:44;;;;;;;9.93;3.50;;;;;;;10.50;96.07;100760.16;5113893;28;20461;-64
2022/11/07 02:46:11;;;;;;;9.88;3.30;;;;;;;10.50;96.70;100757.50;5114294;28;20054;-64
2022/11/07 02:48:46;;;;;;;7.40;3.10;;;;;;;10.51;96.42;100756.63;5114020;28;20035;-64
2022/11/07 02:51:12;;;;;;;12.15;2.92;;;;;;;10.51;97.06;100753.09;5114222;28;20499;-64
2022/11/07 02:53:38;;;;;;;11.55;3.17;;;;;;;10.53;96.76;100754.91;5114035;28;20031;-64
2022/11/07 02:56:04;;;;;;;13.10;3.70;;;;;;;10.56;97.17;100751.38;5114161;28;20024;-64
2022/11/07 02:58:29;;;;;;;12.75;3.30;;;;;;;10.53;96.86;100749.63;5113989;28;20084;-63
2022/11/07 03:01:01;;;;;;;14.73;3.30;;;;;;;10.56;96.56;100754.03;5114044;28;20024;-64
2022/11/07 03:03:29;;;;;;;14.60;3.50;;;;;;;10.56;96.52;100742.56;5114084;28;20069;-63
2022/11/07 03:05:54;;;;;;;11.57;3.40;;;;;;;10.58;96.89;100752.31;5113969;28;20051;-63
2022/11/07 03:08:20;;;;;;;11.45;3.30;;;;;;;10.56;96.93;100746.09;5113935;28;20061;-63
2022/11/07 03:10:45;;;;;;;14.48;3.10;;;;;;;10.55;96.93;100754.03;5113820;28;20111;-63
2022/11/07 03:13:10;;;;;;;21.15;3.50;;;;;;;10.53;97.20;100749.63;5113823;28;20036;-64
2022/11/07 03:15:36;;;;;;;16.10;3.67;;;;;;;10.53;96.74;100754.91;5113869;28;20031;-63
2022/11/07 03:18:01;;;;;;;9.07;3.00;;;;;;;10.51;97.03;100748.69;5113748;28;20027;-63
2022/11/07 03:20:27;;;;;;;11.57;3.72;;;;;;;10.52;97.17;100757.50;5113496;28;20085;-63
2022/11/07 03:22:52;;;;;;;16.83;3.38;;;;;;;10.52;96.99;100752.22;5113720;28;20031;-64
2022/11/07 03:25:18;;;;;;;14.35;3.40;;;;;;;10.51;97.07;100756.63;5113315;28;20567;-64
2022/11/07 03:27:48;;;;;;;13.40;3.03;;;;;;;10.55;97.42;100765.47;5113867;28;20020;-64
2022/11/07 03:30:14;;;;;;;12.77;3.03;;;;;;;10.55;96.95;100752.25;5113816;28;20047;-64
2022/11/07 03:32:39;;;;;;;10.13;2.97;;;;;;;10.55;96.89;100741.69;5113603;28;20481;-64
2022/11/07 03:35:05;;;;;;;13.40;3.10;;;;;;;10.55;97.14;100743.47;5113348;28;20055;-64
2022/11/07 03:37:31;;;;;;;18.98;3.42;;;;;;;10.57;97.08;100745.22;5113854;28;20039;-63
2022/11/07 03:39:56;;;;;;;12.32;3.53;;;;;;;10.62;96.55;100755.84;5113510;28;20032;-63
2022/11/07 03:42:21;;;;;;;13.23;3.50;;;;;;;10.64;96.96;100751.47;5113827;28;20504;-63
2022/11/07 03:44:47;;;;;;;16.20;3.40;;;;;;;10.65;96.72;100756.75;5113495;28;20468;-63
2022/11/07 03:47:12;;;;;;;13.35;3.00;;;;;;;10.65;96.51;100763.78;5113475;28;20027;-63
2022/11/07 03:49:38;;;;;;;12.52;3.28;;;;;;;10.65;96.46;100762.03;5113354;28;20107;-63
2022/11/07 03:52:03;;;;;;;9.13;3.00;;;;;;;10.68;96.65;100759.44;5095203;28;20397;-64
2022/11/07 03:54:28;;;;;;;11.55;3.17;;;;;;;10.69;96.32;100755.03;5113220;28;20484;-64
2022/11/07 03:56:54;;;;;;;19.00;3.58;;;;;;;10.72;96.24;100770.91;5116931;28;20028;-63
2022/11/07 03:59:19;;;;;;;18.05;3.35;;;;;;;10.74;95.99;100763.88;5117760;28;20031;-63
2022/11/07 04:01:45;;;;;;;16.17;3.53;;;;;;;10.76;95.84;100765.66;5099284;28;20103;-64
2022/11/07 04:04:11;;;;;;;15.52;3.60;;;;;;;10.79;95.75;100756.84;5117436;28;20032;-63
2022/11/07 04:06:37;;;;;;;10.73;2.95;;;;;;;10.78;96.26;100758.63;5117503;28;20031;-63
2022/11/07 04:09:02;;;;;;;11.65;3.33;;;;;;;10.80;95.95;100756.00;5117343;28;20028;-63
2022/11/07 04:19:40;;;;;;;15.60;3.35;;;;;;;10.85;95.37;100756.06;5117345;28;20564;-65
2022/11/07 04:22:05;;;;;;;15.57;3.53;;;;;;;10.83;95.37;100748.09;5117151;28;20094;-64
2022/11/07 04:24:30;;;;;;;10.82;3.00;;;;;;;10.84;95.59;100760.47;5116998;28;20035;-63
2022/11/07 04:29:40;;;;;;;15.50;3.30;;;;;;;10.80;95.29;100769.22;5117390;28;20404;-63
2022/11/07 04:32:05;;;;;;;11.25;3.00;;;;;;;10.82;95.06;100756.91;5116895;28;20016;-63
2022/11/07 04:34:30;;;;;;;12.68;3.30;;;;;;;10.80;95.19;100763.06;5116807;28;20361;-63
2022/11/07 04:36:56;;;;;;;22.13;3.50;;;;;;;10.76;95.41;100765.66;5098266;28;20051;-64
2022/11/07 04:39:21;;;;;;;11.18;3.03;;;;;;;10.72;95.79;100763.88;5116768;28;20477;-63
2022/11/07 04:41:46;;;;;;;15.30;3.22;;;;;;;10.71;95.64;100766.50;5116700;28;20016;-63
2022/11/07 04:44:12;;;;;;;11.70;3.33;;;;;;;10.69;95.08;100766.47;5116633;28;20035;-64
2022/11/07 04:46:37;;;;;;;16.67;3.53;;;;;;;10.68;95.76;100771.75;5116727;28;20065;-64
2022/11/07 04:49:03;;;;;;;11.32;3.08;;;;;;;10.66;95.82;100766.47;5116376;28;20035;-64
2022/11/07 04:51:28;;;;;;;24.83;3.78;;;;;;;10.66;95.53;100771.75;5116550;28;20393;-63
2022/11/07 04:53:54;;;;;;;13.65;2.83;;;;;;;10.67;96.17;100775.28;5116214;28;20116;-63
2022/11/07 04:56:19;;;;;;;12.90;3.00;;;;;;;10.69;95.70;100766.47;5116347;28;20032;-64
2022/11/07 04:58:44;;;;;;;18.55;3.75;;;;;;;10.68;95.71;100770.00;5116368;28;20028;-63
2022/11/07 05:01:10;;;;;;;16.15;3.38;;;;;;;10.70;95.98;100764.72;5116446;28;20503;-64
2022/11/07 05:03:35;;;;;;;13.65;3.03;;;;;;;10.72;95.79;100765.63;5116247;28;20028;-63
2022/11/07 05:06:03;;;;;;;16.17;3.55;;;;;;;10.75;95.56;100774.47;5115732;28;20089;-64
2022/11/07 05:08:29;;;;;;;18.65;3.25;;;;;;;10.77;95.33;100766.56;5116157;28;20424;-63
2022/11/07 05:10:54;;;;;;;14.77;3.47;;;;;;;10.78;95.51;100766.56;5116124;28;20028;-64
2022/11/07 05:13:19;;;;;;;14.55;3.08;;;;;;;10.81;94.95;100778.94;5116134;28;20118;-65
2022/11/07 05:15:45;;;;;;;13.35;3.30;;;;;;;10.79;95.13;100772.72;5115972;28;20452;-64
2022/11/07 05:18:10;;;;;;;14.23;3.40;;;;;;;10.79;95.33;100778.00;5116160;28;20028;-63
2022/11/07 05:20:37;;;;;;;19.30;3.45;;;;;;;10.81;94.79;100776.28;5115763;28;20477;-63
2022/11/07 05:23:22;;;;;;;11.13;2.92;;;;;;;10.78;94.77;100790.34;5115944;28;20073;-63
2022/11/07 05:25:52;;;;;;;16.80;3.40;;;;;;;10.77;94.61;100790.34;5115911;28;20039;-64
2022/11/07 05:28:20;;;;;;;16.15;3.00;;;;;;;10.76;95.14;100784.16;5115806;28;20028;-63
2022/11/07 05:30:46;;;;;;;12.13;3.30;;;;;;;10.76;95.14;100784.16;5115777;28;20022;-64
2022/11/07 05:33:13;;;;;;;14.18;3.22;;;;;;;10.77;94.91;100783.28;5115658;28;20103;-64
2022/11/07 05:35:39;;;;;;;13.00;2.92;;;;;;;10.77;94.69;100785.06;5115436;28;20481;-63
2022/11/07 05:38:05;;;;;;;10.55;3.25;;;;;;;10.77;94.92;100788.56;5115613;28;20088;-63
2022/11/07 05:40:33;;;;;;;16.27;2.92;;;;;;;10.81;94.64;100788.63;5115543;28;20385;-63
2022/11/07 05:43:00;;;;;;;13.52;3.70;;;;;;;10.82;94.56;100785.97;5115464;28;20028;-64
2022/11/07 05:45:27;;;;;;;16.98;3.17;;;;;;;10.86;94.17;100789.53;5115423;28;20157;-63
2022/11/07 05:47:59;;;;;;;14.10;2.95;;;;;;;10.87;94.56;100791.28;5115438;28;20020;-64
2022/11/07 05:50:25;;;;;;;10.23;3.03;;;;;;;10.84;94.38;100792.19;5096875;28;20130;-63
2022/11/07 05:52:51;;;;;;;14.43;3.05;;;;;;;10.87;94.41;100786.00;5115397;28;20061;-63
2022/11/07 05:55:16;;;;;;;16.23;3.25;;;;;;;10.88;93.82;100783.41;5115140;28;20105;-63
2022/11/07 05:57:41;;;;;;;14.60;3.00;;;;;;;10.90;94.34;100786.94;5115271;28;20583;-63
2022/11/07 06:00:07;;;;;;;15.45;3.40;;;;;;;10.91;93.86;100793.09;5115413;28;20027;-64
2022/11/07 06:02:33;;;;;;;11.38;2.80;;;;;;;10.88;94.10;100788.69;5115136;28;20028;-64
2022/11/07 06:04:58;;;;;;;18.17;3.28;;;;;;;10.89;93.83;100794.84;5115018;28;20020;-67
2022/11/07 06:07:23;;;;;;;17.73;3.50;;;;;;;10.90;93.82;100786.94;5115299;28;20031;-66
2022/11/07 06:09:49;;;;;;;15.73;3.38;;;;;;;10.91;93.92;100783.41;5115039;28;20059;-65
2022/11/07 06:12:14;;;;;;;11.43;3.15;;;;;;;10.93;93.86;100789.59;5115286;28;20031;-64
2022/11/07 06:14:40;;;;;;;13.68;3.20;;;;;;;10.94;93.82;100787.84;5115068;28;20473;-64
2022/11/07 06:17:06;;;;;;;13.43;3.03;;;;;;;10.97;94.16;100794.03;5114875;28;20055;-64
2022/11/07 06:19:31;;;;;;;13.00;2.92;;;;;;;10.97;94.24;100791.41;5114053;28;20036;-64
2022/11/07 06:21:59;;;;;;;16.77;3.10;;;;;;;11.01;93.91;100784.38;5115020;28;20038;-64
2022/11/07 06:24:24;;;;;;;12.00;3.10;;;;;;;11.02;93.81;100797.59;5114603;28;20034;-64
2022/11/07 06:26:50;;;;;;;18.05;3.42;;;;;;;11.04;93.58;100789.69;5114630;28;20024;-64
2022/11/07 06:29:15;;;;;;;19.15;3.28;;;;;;;11.07;93.48;100794.13;5114677;28;20548;-64
2022/11/07 06:31:41;;;;;;;14.38;3.47;;;;;;;11.09;93.47;100789.72;5114599;28;20076;-64
2022/11/07 06:34:06;;;;;;;18.23;4.55;;;;;;;11.08;93.11;100795.88;5114359;28;20451;-64
2022/11/07 06:36:31;;;;;;;16.63;3.33;;;;;;;11.10;93.31;100802.97;5114083;28;20078;-64
2022/11/07 06:38:57;;;;;;;13.90;3.40;;;;;;;11.11;93.28;100799.44;5114399;28;20034;-64
2022/11/07 06:41:22;;;;;;;12.45;3.28;;;;;;;11.13;93.59;100813.53;5096107;28;20136;-64
2022/11/07 06:43:50;;;;;;;14.48;3.25;;;;;;;11.14;93.41;100812.69;5114376;28;20067;-64
2022/11/07 06:46:18;;;;;;;11.75;3.00;;;;;;;11.20;93.18;100806.56;5114393;28;20377;-64
2022/11/07 06:48:43;;;;;;;12.13;3.10;;;;;;;11.22;92.76;100799.50;5114238;28;20019;-64
2022/11/07 06:51:09;;;;;;;13.15;3.17;;;;;;;11.23;93.13;100804.81;5114453;28;20050;-64
2022/11/07 06:53:36;;;;;;;17.70;3.47;;;;;;;11.26;92.71;100818.09;5114087;28;20030;-64
2022/11/07 06:56:03;;;;;;;17.50;3.50;;;;;;;11.29;92.53;100819.84;5114154;28;20427;-64
2022/11/07 06:58:29;;;;;;;15.90;3.40;;;;;;;11.28;92.60;100818.09;5114315;28;20019;-64
2022/11/07 07:00:59;;;;;;;16.63;4.00;;;;;;;11.32;92.53;100822.53;5114047;28;20046;-65
2022/11/07 07:03:25;;;;;;;19.40;3.70;;;;;;;11.34;92.50;100811.94;5114343;28;20057;-64
2022/11/07 07:05:50;;;;;;;17.58;3.92;;;;;;;11.33;92.72;100818.13;5113964;28;20055;-64
2022/11/07 07:08:16;;;;;;;11.57;2.97;;;;;;;11.36;92.38;100821.66;5095934;28;20024;-64
2022/11/07 07:10:44;;;;;;;12.68;3.08;;;;;;;11.38;92.81;100819.91;5113823;28;20039;-64
2022/11/07 07:13:13;;;;;;;13.70;3.45;;;;;;;11.40;92.45;100830.53;5113848;28;20024;-64
2022/11/07 07:15:38;;;;;;;11.35;2.75;;;;;;;11.45;92.47;100823.50;5113772;28;20134;-64
2022/11/07 07:18:04;;;;;;;13.93;3.08;;;;;;;11.44;92.36;100827.91;5113751;28;20076;-63
2022/11/07 07:20:30;;;;;;;12.48;3.22;;;;;;;11.43;92.23;100826.09;5113534;28;20433;-64
2022/11/07 07:22:56;;;;;;;12.90;3.25;;;;;;;11.44;92.15;100848.19;5113722;28;20039;-63
2022/11/07 07:25:22;;;;;;;14.63;2.92;;;;;;;11.43;92.47;100836.69;5113703;28;20023;-65
2022/11/07 07:27:47;;;;;;;14.55;3.33;;;;;;;11.46;92.25;100851.72;5113642;28;20030;-64
2022/11/07 07:30:13;;;;;;;10.57;2.90;;;;;;;11.47;92.68;100845.53;5113406;28;20047;-64
2022/11/07 07:32:38;;;;;;;15.32;2.97;;;;;;;11.51;92.28;100845.56;5113538;28;20027;-64
2022/11/07 07:35:05;;;;;;;13.20;2.88;;;;;;;11.53;92.42;100856.19;5113417;28;20019;-64
2022/11/07 07:37:30;;;;;;;18.33;3.20;;;;;;;11.56;92.32;100847.38;5113230;28;20074;-64
2022/11/07 07:39:55;;;;;;;15.35;3.20;;;;;;;11.60;92.26;100854.44;5113521;28;20027;-64
2022/11/07 07:42:21;;;;;;;11.90;3.00;;;;;;;11.66;91.82;100851.88;5113515;28;20481;-65
2022/11/07 07:44:46;;;;;;;11.80;3.13;;;;;;;11.68;91.81;100844.81;5095305;28;20051;-64
2022/11/07 07:47:12;;;;;;;13.18;3.30;;;;;;;11.71;91.50;100851.00;5113460;28;20031;-64
2022/11/07 07:49:37;;;;;;;14.77;3.00;;;;;;;11.71;91.47;100863.38;5113191;28;20055;-64
2022/11/07 07:52:03;;;;;;;14.18;2.97;;;;;;;11.76;91.58;100861.63;5113463;28;20028;-64
2022/11/07 07:54:28;;;;;;;16.85;3.28;;;;;;;11.79;91.71;100866.94;5113219;28;20096;-64
2022/11/07 07:56:53;;;;;;;14.85;3.30;;;;;;;11.82;92.04;100868.72;5113359;28;20054;-65
2022/11/07 07:59:19;;;;;;;14.15;3.30;;;;;;;11.86;92.32;100863.50;5113459;28;20032;-64
2022/11/07 08:01:44;;;;;;;16.15;3.20;;;;;;;11.89;92.05;100876.72;5113585;28;20165;-64
2022/11/07 08:04:10;;;;;;;15.10;3.30;;;;;;;12.00;92.01;100879.47;5113318;28;20504;-64
2022/11/07 08:06:36;;;;;;;17.45;3.35;;;;;;;12.24;90.97;100865.44;5113544;28;20092;-64
2022/11/07 08:09:03;;;;;;;10.45;2.67;;;;;;;12.48;90.36;100878.78;5113259;28;20518;-64
2022/11/07 08:11:28;;;;;;;20.63;3.47;;;;;;;12.72;89.58;100877.97;5113242;28;20476;-64
2022/11/07 08:13:54;;;;;;;15.05;3.15;;;;;;;12.81;88.63;100879.78;5113167;28;20028;-65
2022/11/07 08:16:19;;;;;;;12.10;3.13;;;;;;;12.86;88.33;100875.34;5095123;28;20110;-64
2022/11/07 08:18:44;;;;;;;11.20;2.78;;;;;;;12.87;87.67;100882.41;5112924;28;20124;-64
2022/11/07 08:21:10;;;;;;;17.25;2.97;;;;;;;12.83;88.14;100887.72;5113091;28;20023;-64
2022/11/07 08:23:36;;;;;;;17.80;3.53;;;;;;;12.92;87.71;100878.00;5113378;28;20124;-64
2022/11/07 08:26:03;;;;;;;12.48;2.80;;;;;;;13.18;87.02;100874.50;5095117;28;20039;-64
2022/11/07 08:28:31;;;;;;;15.90;3.40;;;;;;;13.41;85.35;100874.56;5113312;28;20031;-64
2022/11/07 08:31:03;;;;;;;9.30;2.67;;;;;;;13.57;84.60;100884.25;5113084;28;20059;-64
2022/11/07 08:33:28;;;;;;;11.05;2.72;;;;;;;13.63;84.20;100892.22;5113106;28;20189;-64
2022/11/07 08:35:55;;;;;;;12.77;2.97;;;;;;;13.68;84.64;100885.13;5112769;28;20456;-63
2022/11/07 08:38:21;;;;;;;13.88;3.10;;;;;;;13.68;83.69;100885.13;5094976;28;20045;-63
2022/11/07 08:40:48;;;;;;;11.30;2.80;;;;;;;13.67;84.00;100888.69;5112887;28;20019;-63
2022/11/07 08:43:15;;;;;;;11.43;3.10;;;;;;;13.59;83.78;100893.09;5116346;28;20039;-64
2022/11/07 08:45:41;;;;;;;13.48;3.30;;;;;;;13.45;84.48;100898.44;5116707;28;20084;-64
2022/11/07 08:48:06;;;;;;;12.68;2.63;;;;;;;13.44;84.17;100906.38;5116429;28;20024;-65
2022/11/07 08:50:32;;;;;;;11.73;2.90;;;;;;;13.46;84.52;100902.84;5116374;28;20073;-65
2022/11/07 08:52:58;;;;;;;13.38;3.00;;;;;;;13.50;84.72;100906.41;5116560;28;20028;-64
2022/11/07 08:55:24;;;;;;;11.75;3.17;;;;;;;13.46;84.78;100913.47;5116248;28;20067;-65
2022/11/07 08:57:49;;;;;;;10.15;2.85;;;;;;;13.43;84.73;100908.16;5098339;28;20059;-64
2022/11/07 09:00:15;;;;;;;9.48;3.15;;;;;;;13.44;85.50;100917.00;5116375;28;20054;-64
2022/11/07 09:02:41;;;;;;;11.82;2.97;;;;;;;13.48;85.29;100918.75;5116337;28;20358;-65
2022/11/07 09:05:07;;;;;;;11.63;3.10;;;;;;;13.39;84.81;100932.91;5116271;28;20031;-64
2022/11/07 09:07:36;;;;;;;15.85;3.25;;;;;;;13.31;85.53;100932.03;5116454;28;20129;-64
2022/11/07 09:10:02;;;;;;;15.40;2.88;;;;;;;13.27;85.78;100935.56;5116430;28;20077;-65
2022/11/07 09:12:28;;;;;;;12.27;3.25;;;;;;;13.21;85.85;100938.19;5116093;28;20028;-63
2022/11/07 09:14:53;;;;;;;13.55;2.97;;;;;;;13.13;85.98;100942.59;5097796;28;20031;-64
2022/11/07 09:17:18;;;;;;;11.60;2.80;;;;;;;13.09;86.88;100936.38;5116088;28;20429;-63
2022/11/07 09:19:44;;;;;;;10.35;2.92;;;;;;;13.09;86.75;100931.09;5115974;28;20055;-63
2022/11/07 09:22:09;;;;;;;16.25;3.38;;;;;;;13.05;86.92;100942.56;5115950;28;20538;-64
2022/11/07 09:24:34;;;;;;;16.40;3.08;;;;;;;13.04;87.39;100946.13;5115899;28;20032;-63
2022/11/07 09:27:00;;;;;;;18.50;3.40;;;;;;;13.07;87.19;100945.25;5115887;28;20111;-64
2022/11/07 09:29:25;;;;;;;14.90;3.63;;;;;;;13.10;87.27;100950.53;5115808;28;20024;-64
2022/11/07 09:31:51;;;;;;;14.50;3.05;;;;;;;13.12;86.71;100972.66;5115801;28;20453;-64
2022/11/07 09:34:16;;;;;;;15.48;3.10;;;;;;;13.12;87.04;100943.47;5115668;28;20085;-63
2022/11/07 09:36:41;;;;;;;17.73;3.17;;;;;;;13.16;86.68;100954.09;5115607;28;20074;-64
2022/11/07 09:39:07;;;;;;;13.07;3.38;;;;;;;13.13;87.33;100954.09;5115675;28;20429;-64
2022/11/07 09:41:58;;;;;;;11.95;3.10;;;;;;;13.16;87.41;100951.44;5115347;28;20069;-63
2022/11/07 09:44:34;;;;;;;16.40;3.15;;;;;;;13.17;86.73;100947.03;5115479;28;20085;-64
2022/11/07 09:47:15;;;;;;;15.75;3.20;;;;;;;13.16;87.31;100956.75;5115468;28;20024;-64
2022/11/07 09:49:54;;;;;;;16.80;3.40;;;;;;;13.16;87.00;100975.31;5115133;28;20035;-63
2022/11/07 09:52:50;;;;;;;14.02;3.28;;;;;;;13.19;86.89;100951.47;5115274;28;20510;-64
2022/11/07 09:55:18;;;;;;;15.38;3.15;;;;;;;13.24;86.52;100960.34;5114934;28;20034;-64
2022/11/07 09:57:44;;;;;;;17.25;3.00;;;;;;;13.32;86.04;100956.78;5115436;28;20030;-64
2022/11/07 10:00:20;;;;;;;10.93;2.95;;;;;;;13.36;85.98;100961.22;5115233;28;20054;-63
2022/11/07 10:02:53;;;;;;;10.43;2.95;;;;;;;13.38;86.14;100968.31;5115186;28;20403;-64
2022/11/07 10:05:29;;;;;;;11.07;2.88;;;;;;;13.42;86.29;100962.13;5115403;28;20057;-63
2022/11/07 10:08:16;;;;;;;15.43;2.90;;;;;;;13.46;86.11;100968.34;5115452;28;20036;-62
2022/11/07 10:11:02;;;;;;;14.35;3.30;;;;;;;13.53;85.28;100952.41;5115132;28;20513;-63
2022/11/07 10:13:55;;;;;;;13.23;3.28;;;;;;;13.56;84.80;100962.13;5115013;28;20032;-63
2022/11/07 10:16:34;;;;;;;13.07;2.90;;;;;;;13.60;85.29;100965.69;5114960;28;20119;-64
2022/11/07 10:19:41;;;;;;;15.20;3.05;;;;;;;13.57;85.20;100966.56;5096355;28;20392;-64
2022/11/07 10:22:51;;;;;;;13.98;2.97;;;;;;;13.58;84.75;100978.09;5031977;28;20030;-64
2022/11/07 10:25:37;;;;;;;10.20;3.13;;;;;;;13.56;85.12;100971.88;5012361;28;20133;-63
2022/11/07 10:28:05;;;;;;;14.65;3.00;;;;;;;13.57;84.83;100973.63;5105500;28;20046;-64
2022/11/07 10:30:31;;;;;;;13.50;3.13;;;;;;;13.59;84.95;100978.06;5114666;28;20167;-64
2022/11/07 10:33:18;;;;;;;15.20;3.47;;;;;;;13.64;83.82;100983.38;5114939;28;20540;-64
2022/11/07 10:35:56;;;;;;;12.85;3.10;;;;;;;13.66;84.18;100963.00;5114517;28;20030;-64
2022/11/07 10:38:25;;;;;;;16.30;3.30;;;;;;;13.72;84.25;100971.00;5114570;28;20035;-63
2022/11/07 10:40:51;;;;;;;12.60;3.20;;;;;;;13.77;83.95;100980.72;5114472;28;20020;-64
2022/11/07 10:43:38;;;;;;;19.55;3.15;;;;;;;13.81;83.63;100980.72;5114422;28;20056;-63
2022/11/07 10:46:12;;;;;;;13.75;3.08;;;;;;;13.88;84.24;100979.84;5114608;28;20143;-64
2022/11/07 10:48:48;;;;;;;11.35;3.00;;;;;;;13.94;83.30;100988.69;5114100;28;20031;-63
2022/11/07 10:51:13;;;;;;;11.57;3.10;;;;;;;13.95;82.56;100990.44;5096070;28;20043;-63
2022/11/07 10:53:43;;;;;;;13.10;3.00;;;;;;;13.98;82.99;100973.63;5114199;28;20028;-63
2022/11/07 10:56:11;;;;;;;9.00;2.83;;;;;;;14.19;82.24;100970.94;5114622;28;20082;-63
2022/11/07 10:58:43;;;;;;;14.27;2.92;;;;;;;14.34;82.09;100985.06;5114151;28;20038;-63
2022/11/07 11:01:10;;;;;;;13.07;3.00;;;;;;;14.35;80.50;100990.41;5114199;28;20027;-64
2022/11/07 11:03:42;;;;;;;12.18;2.72;;;;;;;14.29;80.82;100983.31;5113845;28;20016;-64
2022/11/07 11:06:16;;;;;;;17.15;3.00;;;;;;;14.32;79.80;100995.72;5113758;28;20030;-64
2022/11/07 11:08:43;;;;;;;12.13;3.00;;;;;;;14.32;80.23;100987.75;5113941;28;20123;-63
2022/11/07 11:11:17;;;;;;;15.80;3.55;;;;;;;14.32;79.71;101006.34;5113884;28;20028;-63
2022/11/07 11:13:44;;;;;;;16.80;3.10;;;;;;;14.24;80.58;100985.09;5095578;28;20549;-64
2022/11/07 11:16:12;;;;;;;13.10;2.90;;;;;;;14.27;80.03;100986.88;5113768;28;20027;-63
2022/11/07 11:18:47;;;;;;;12.65;3.20;;;;;;;14.23;80.56;100988.66;5113853;28;20098;-65
2022/11/07 11:21:12;;;;;;;14.00;3.00;;;;;;;14.22;80.03;100975.38;5113928;28;20063;-64
2022/11/07 11:23:42;;;;;;;12.95;2.92;;;;;;;14.26;80.66;100971.78;5113878;28;20028;-63
2022/11/07 11:26:19;;;;;;;15.93;3.00;;;;;;;14.25;79.74;100973.56;5113790;28;20024;-64
2022/11/07 11:28:52;;;;;;;15.75;3.30;;;;;;;14.25;79.76;100978.00;5095576;28;20122;-63
2022/11/07 11:31:17;;;;;;;12.90;2.80;;;;;;;14.27;80.80;100966.50;5114028;28;20110;-63
2022/11/07 11:33:57;;;;;;;14.50;3.38;;;;;;;14.31;80.46;100969.16;5113628;28;20055;-63
2022/11/07 11:36:28;;;;;;;13.02;3.25;;;;;;;14.38;79.64;100970.88;5113280;28;20108;-63